Caldas1b

Aéroports (rapport METAR)


LPPT - Lisboa
Distance de la station: SSE 78km
Mise à jour: 21/06/2024 17:30
Quelques nuages
Quelques nuages
 Vent du NO
Vent: NO 24 km/h
Température: 23°C
Point de rosée: 13°C
Humidité: 53%
Baromètre: 1022 hPa
Nuages: Quelques nuages
Visibilité: 10 km
Nébulosité: Quelques nuages 1158 m
2024/06/21 16:30 LPPT 211630Z 32013KT 9999 FEW038 23/13 Q1022
LPPR - Porto
Distance de la station: NO 205km
Mise à jour: 21/06/2024 17:30
Clair
Clair
 Vent du NNO
Vent: NNO 24 km/h
Température: 17°C
Point de rosée: 10°C
Humidité: 64%
Baromètre: 1024 hPa
Résumé: Clair
Visibilité: plus que 10 km
2024/06/21 16:30 LPPR 211630Z 34013KT CAVOK 17/10 Q1024
 
LPFR - Faro
Distance de la station: SE 286km
Mise à jour: 21/06/2024 17:30
Clair
Clair
 Vent du OSO
Vent: OSO 20 km/h
Température: 22°C
Point de rosée: 15°C
Humidité: 65%
Baromètre: 1019 hPa
Résumé: Clair
Visibilité: plus que 10 km
2024/06/21 16:30 LPFR 211630Z 25011KT CAVOK 22/15 Q1019
LPBJ - Beja
Distance de la station: ESE 190km
Mise à jour: 21/06/2024 17:00
Clair
Clair
 Vent du variable
Vent: variable 11 km/h
Température: 29°C
Point de rosée: 7°C
Humidité: 25%
Baromètre: 1020 hPa
Résumé: Clair
Visibilité: plus que 10 km
2024/06/21 16:00 LPBJ 211600Z VRB06KT CAVOK 29/07 Q1020
 
LPMA - Funchal
Distance de la station: SSO 1025km
Mise à jour: 21/06/2024 17:30
Part. nuageux
Part. nuageux
 Vent du N
Vent: N 26 km/h
Température: 21°C
Point de rosée: 12°C
Humidité: 57%
Baromètre: 1024 hPa
Nuages: Part. nuageux
Visibilité: 10 km
Nébulosité: Part. nuageux 488 m
2024/06/21 16:30 LPMA 211630Z 01014KT 340V040 9999 SCT016 21/12 Q1024
LPPD - Ponta Delgada
Distance de la station: O 1450km
Mise à jour: 21/06/2024 17:30
Quelques nuages
Quelques nuages
 Vent du S
Vent: S 13 km/h
Température: 22°C
Point de rosée: 16°C
Humidité: 69%
Baromètre: 1028 hPa
Nuages: Quelques nuages
Visibilité: 10 km
Nébulosité: Quelques nuages 762 m
2024/06/21 16:30 LPPD 211630Z 18007KT 150V210 9999 FEW025 22/16 Q1028
 
LPCS - Cascais
Distance de la station: SSO 77km
Mise à jour: 21/06/2024 17:30
Quelques nuages
Quelques nuages
 Vent du NNO
Vent: NNO 35 km/h
Température: 20°C
Point de rosée: 13°C
Humidité: 64%
Baromètre: 1022 hPa
Nuages: Quelques nuages
Visibilité: 10 km
Nébulosité: Quelques nuages 762 m
2024/06/21 16:30 LPCS 211630Z 34019KT 9999 FEW025 20/13 Q1022
LPMR - Monte Real
Distance de la station: N 55km
Mise à jour: 21/06/2024 17:00
Quelques nuages
Quelques nuages
 Vent du NNO
Vent: NNO 30 km/h
Température: 19°C
Point de rosée: 12°C
Humidité: 64%
Baromètre: 1024 hPa
Nuages: Quelques nuages
Visibilité: 10 km
Nébulosité: Quelques nuages 732 m
2024/06/21 16:00 LPMR 211600Z 34016KT 9999 FEW024 19/12 Q1024

Phoenix Radar Flight Tracking

Map courtesy of flightradar24.com